Time;durP1;ratioP1;P1;durP2;ratioP2;P2;SDS_P1;SDS_P2;PMS_P1;PMS_P2;Temp;Humidity;BMP_temperature;BMP_pressure;BME280_temperature;BME280_humidity;BME280_pressure;Samples;Min_cycle;Max_cycle;Signal;HPM_P1;HPM_P2
2022/05/06 00:02:18;;;;;;;;;;;;;;;;;;5138804;27;28317;-92
2022/05/06 00:04:43;;;;;;;;;;;;;;;;;;5138486;27;30865;-92
2022/05/06 00:07:11;;;;;;;;;;;;;;;;;;5138124;27;28402;-91
2022/05/06 00:09:36;;;;;;;;;;;;;;;;;;5138523;27;28353;-91
2022/05/06 00:12:01;;;;;;;;;;;;;;;;;;5157233;27;28433;-92
2022/05/06 00:14:26;;;;;;;;;;;;;;;;;;5138054;27;31103;-91
2022/05/06 00:16:51;;;;;;;;;;;;;;;;;;5138311;27;29541;-92
2022/05/06 00:19:16;;;;;;;;;;;;;;;;;;5157208;27;27915;-91
2022/05/06 00:21:41;;;;;;;;;;;;;;;;;;5138319;27;28325;-91
2022/05/06 00:24:07;;;;;;;;;;;;;;;;;;5138456;27;30011;-92
2022/05/06 00:26:32;;;;;;;;;;;;;;;;;;5157958;27;31486;-91
2022/05/06 00:28:57;;;;;;;;;;;;;;;;;;5160271;27;27766;-92
2022/05/06 00:31:22;;;;;;;;;;;;;;;;;;5160654;27;28369;-91
2022/05/06 00:33:48;;;;;;;;;;;;;;;;;;5160106;27;28457;-91
2022/05/06 00:36:14;;;;;;;;;;;;;;;;;;5160212;27;28572;-92
2022/05/06 00:38:39;;;;;;;;;;;;;;;;;;5141751;27;28402;-92
2022/05/06 00:41:04;;;;;;;;;;;;;;;;;;5141686;27;28373;-91
2022/05/06 00:43:29;;;;;;;;;;;;;;;;;;5160314;27;28480;-91
2022/05/06 00:45:55;;;;;;;;;;;;;;;;;;5141718;27;28394;-92
2022/05/06 00:48:20;;;;;;;;;;;;;;;;;;5142452;27;28413;-92
2022/05/06 00:50:45;;;;;;;;;;;;;;;;;;5142897;27;28468;-93
2022/05/06 00:53:10;;;;;;;;;;;;;;;;;;5146420;27;29884;-92
2022/05/06 00:55:35;;;;;;;;;;;;;;;;;;5149500;27;28148;-92
2022/05/06 00:58:01;;;;;;;;;;;;;;;;;;5150703;27;28391;-92
2022/05/06 01:00:26;;;;;;;;;;;;;;;;;;5144198;27;28417;-92
2022/05/06 01:02:51;;;;;;;;;;;;;;;;;;5143164;27;29633;-93
2022/05/06 01:05:16;;;;;;;;;;;;;;;;;;5142705;27;29173;-92
2022/05/06 01:07:43;;;;;;;;;;;;;;;;;;5144190;27;28320;-92
2022/05/06 01:10:08;;;;;;;;;;;;;;;;;;5144240;27;28581;-92
2022/05/06 01:12:36;;;;;;;;;;;;;;;;;;5165755;27;28277;-91
2022/05/06 01:15:01;;;;;;;;;;;;;;;;;;5162610;27;28468;-92
2022/05/06 01:17:26;;;;;;;;;;;;;;;;;;5144601;27;28499;-93
2022/05/06 01:19:51;;;;;;;;;;;;;;;;;;5143345;27;28320;-92
2022/05/06 01:22:17;;;;;;;;;;;;;;;;;;5142699;27;29761;-91
2022/05/06 01:24:43;;;;;;;;;;;;;;;;;;5141374;27;28529;-91
2022/05/06 01:27:08;;;;;;;;;;;;;;;;;;5140672;27;28437;-91
2022/05/06 01:29:33;;;;;;;;;;;;;;;;;;5162783;27;28443;-92
2022/05/06 01:31:58;;;;;;;;;;;;;;;;;;5147302;27;28455;-91
2022/05/06 01:34:23;;;;;;;;;;;;;;;;;;5146011;27;28446;-91
2022/05/06 01:36:48;;;;;;;;;;;;;;;;;;5160201;27;28455;-91
2022/05/06 01:39:15;;;;;;;;;;;;;;;;;;5158690;27;28307;-92
2022/05/06 01:41:40;;;;;;;;;;;;;;;;;;5160732;27;28718;-90
2022/05/06 01:44:06;;;;;;;;;;;;;;;;;;5140490;27;28425;-90
2022/05/06 01:46:31;;;;;;;;;;;;;;;;;;5158890;27;28398;-91
2022/05/06 01:48:56;;;;;;;;;;;;;;;;;;5159665;27;28541;-90
2022/05/06 01:51:21;;;;;;;;;;;;;;;;;;5159549;27;28436;-91
2022/05/06 01:53:46;;;;;;;;;;;;;;;;;;5159195;27;28668;-91
2022/05/06 01:56:11;;;;;;;;;;;;;;;;;;5160324;27;28404;-92
2022/05/06 01:58:36;;;;;;;;;;;;;;;;;;5141339;27;27838;-92
2022/05/06 02:01:02;;;;;;;;;;;;;;;;;;5161589;27;28406;-91
2022/05/06 02:06:11;;;;;;;;;;;;;;;;;;5158697;27;28518;-90
2022/05/06 02:08:37;;;;;;;;;;;;;;;;;;5158898;27;28383;-91
2022/05/06 02:11:02;;;;;;;;;;;;;;;;;;5159688;27;28319;-93
2022/05/06 02:13:34;;;;;;;;;;;;;;;;;;5165154;27;28471;-93
2022/05/06 02:15:59;;;;;;;;;;;;;;;;;;5141790;27;28351;-92
2022/05/06 02:18:24;;;;;;;;;;;;;;;;;;5143084;27;28427;-92
2022/05/06 02:20:49;;;;;;;;;;;;;;;;;;5141803;27;30054;-93
2022/05/06 02:23:15;;;;;;;;;;;;;;;;;;5141806;27;29439;-93
2022/05/06 02:25:40;;;;;;;;;;;;;;;;;;5141699;27;28419;-92
2022/05/06 02:28:07;;;;;;;;;;;;;;;;;;5159602;27;28384;-92
2022/05/06 02:33:23;;;;;;;;;;;;;;;;;;5159213;27;28457;-92
2022/05/06 02:35:48;;;;;;;;;;;;;;;;;;5140359;27;28490;-92
2022/05/06 02:38:13;;;;;;;;;;;;;;;;;;5140502;27;28926;-93
2022/05/06 02:40:38;;;;;;;;;;;;;;;;;;5140291;27;29727;-93
2022/05/06 02:43:03;;;;;;;;;;;;;;;;;;5158844;27;28381;-92
2022/05/06 02:45:28;;;;;;;;;;;;;;;;;;5139918;27;28399;-92
2022/05/06 02:47:53;;;;;;;;;;;;;;;;;;5158959;27;28509;-91
2022/05/06 02:50:19;;;;;;;;;;;;;;;;;;5158350;27;28479;-92
2022/05/06 02:52:44;;;;;;;;;;;;;;;;;;5140026;27;28509;-92
2022/05/06 02:55:09;;;;;;;;;;;;;;;;;;5140244;27;28334;-93
2022/05/06 02:57:34;;;;;;;;;;;;;;;;;;5139769;27;28600;-91
2022/05/06 02:59:59;;;;;;;;;;;;;;;;;;5139561;27;34288;-91
2022/05/06 03:02:24;;;;;;;;;;;;;;;;;;5139368;27;28424;-92
2022/05/06 03:04:49;;;;;;;;;;;;;;;;;;5140315;27;28358;-91
2022/05/06 03:07:14;;;;;;;;;;;;;;;;;;5139690;27;27876;-92
2022/05/06 03:09:40;;;;;;;;;;;;;;;;;;5139434;27;29708;-92
2022/05/06 03:12:05;;;;;;;;;;;;;;;;;;5158332;27;28438;-91
2022/05/06 03:14:30;;;;;;;;;;;;;;;;;;5159964;27;28396;-93
2022/05/06 03:16:55;;;;;;;;;;;;;;;;;;5141189;27;28650;-92
2022/05/06 03:19:21;;;;;;;;;;;;;;;;;;5140382;27;30822;-92
2022/05/06 03:21:46;;;;;;;;;;;;;;;;;;5150251;27;28345;-92
2022/05/06 03:24:11;;;;;;;;;;;;;;;;;;5146560;27;28486;-93
2022/05/06 03:26:36;;;;;;;;;;;;;;;;;;5145533;27;28413;-92
2022/05/06 03:29:02;;;;;;;;;;;;;;;;;;5143553;27;29561;-92
2022/05/06 03:31:27;;;;;;;;;;;;;;;;;;5158747;27;28270;-92
2022/05/06 03:33:54;;;;;;;;;;;;;;;;;;5158189;27;28260;-92
2022/05/06 03:36:19;;;;;;;;;;;;;;;;;;5139396;27;28295;-92
2022/05/06 03:38:44;;;;;;;;;;;;;;;;;;5140414;27;30426;-92
2022/05/06 03:41:09;;;;;;;;;;;;;;;;;;5139354;27;29103;-93
2022/05/06 03:43:35;;;;;;;;;;;;;;;;;;5158237;27;28316;-92
2022/05/06 03:46:00;;;;;;;;;;;;;;;;;;5139565;27;28554;-92
2022/05/06 03:48:25;;;;;;;;;;;;;;;;;;5139483;27;29938;-92
2022/05/06 03:53:34;;;;;;;;;;;;;;;;;;5158021;27;28293;-92
2022/05/06 03:55:59;;;;;;;;;;;;;;;;;;5139782;27;28565;-91
2022/05/06 03:58:24;;;;;;;;;;;;;;;;;;5138632;27;29761;-91
2022/05/06 04:00:49;;;;;;;;;;;;;;;;;;5157872;27;28485;-92
2022/05/06 04:03:14;;;;;;;;;;;;;;;;;;5143865;27;28619;-93
2022/05/06 04:05:41;;;;;;;;;;;;;;;;;;5142862;27;28278;-92
2022/05/06 04:08:07;;;;;;;;;;;;;;;;;;5144354;27;30652;-92
2022/05/06 04:10:32;;;;;;;;;;;;;;;;;;5151309;27;28533;-92
2022/05/06 04:12:57;;;;;;;;;;;;;;;;;;5147827;27;28506;-92
2022/05/06 04:15:22;;;;;;;;;;;;;;;;;;5148912;27;27926;-93
2022/05/06 04:17:47;;;;;;;;;;;;;;;;;;5146884;27;29751;-91
2022/05/06 04:25:41;;;;;;;;;;;;;;;;;;5160753;27;28314;-92
2022/05/06 04:28:06;;;;;;;;;;;;;;;;;;5161100;27;28469;-91
2022/05/06 04:30:31;;;;;;;;;;;;;;;;;;5162050;27;28481;-90
2022/05/06 04:32:56;;;;;;;;;;;;;;;;;;5146596;27;28498;-91
2022/05/06 04:35:21;;;;;;;;;;;;;;;;;;5146957;27;28426;-91
2022/05/06 04:37:47;;;;;;;;;;;;;;;;;;5146276;27;29719;-92
2022/05/06 04:40:12;;;;;;;;;;;;;;;;;;5148614;27;29107;-92
2022/05/06 04:42:37;;;;;;;;;;;;;;;;;;5150585;27;28447;-92
2022/05/06 04:45:02;;;;;;;;;;;;;;;;;;5149745;27;28432;-91
2022/05/06 04:47:27;;;;;;;;;;;;;;;;;;5148170;27;29634;-92
2022/05/06 04:49:53;;;;;;;;;;;;;;;;;;5152125;27;28544;-92
2022/05/06 04:52:18;;;;;;;;;;;;;;;;;;5143470;27;27890;-91
2022/05/06 04:54:43;;;;;;;;;;;;;;;;;;5166950;27;27793;-92
2022/05/06 04:57:08;;;;;;;;;;;;;;;;;;5141348;27;29438;-91
2022/05/06 04:59:33;;;;;;;;;;;;;;;;;;5140025;27;28429;-91
2022/05/06 05:01:58;;;;;;;;;;;;;;;;;;5127725;27;28443;-92
2022/05/06 05:04:27;;;;;;;;;;;;;;;;;;5149504;27;27767;-91
2022/05/06 05:06:54;;;;;;;;;;;;;;;;;;5125732;27;30281;-91
2022/05/06 05:09:19;;;;;;;;;;;;;;;;;;5126135;27;28661;-91
2022/05/06 05:11:45;;;;;;;;;;;;;;;;;;5120858;27;28360;-91
2022/05/06 05:14:10;;;;;;;;;;;;;;;;;;5138566;27;28358;-91
2022/05/06 05:16:35;;;;;;;;;;;;;;;;;;5120583;27;29767;-91
2022/05/06 05:19:00;;;;;;;;;;;;;;;;;;5122623;27;28785;-84
2022/05/06 05:21:25;;;;;;;;;;;;;;;;;;5139386;27;28335;-94
2022/05/06 05:23:50;;;;;;;;;;;;;;;;;;5120849;27;28345;-91
2022/05/06 05:26:15;;;;;;;;;;;;;;;;;;5138543;27;29143;-86
2022/05/06 05:28:40;;;;;;;;;;;;;;;;;;5138604;27;28303;-88
2022/05/06 05:31:06;;;;;;;;;;;;;;;;;;5138849;27;28154;-85
2022/05/06 05:33:31;;;;;;;;;;;;;;;;;;5138741;27;28318;-86
2022/05/06 05:35:56;;;;;;;;;;;;;;;;;;5138671;27;28842;-84
2022/05/06 05:38:21;;;;;;;;;;;;;;;;;;5136180;27;28388;-84
2022/05/06 05:40:46;;;;;;;;;;;;;;;;;;5122845;27;28464;-85
2022/05/06 05:48:43;;;;;;;;;;;;;;;;;;5094685;27;28432;-89
2022/05/06 05:51:08;;;;;;;;;;;;;;;;;;5095070;28;28583;-86
2022/05/06 05:53:34;;;;;;;;;;;;;;;;;;5093948;27;28367;-87
2022/05/06 05:55:59;;;;;;;;;;;;;;;;;;5094542;27;28542;-87
2022/05/06 05:58:24;;;;;;;;;;;;;;;;;;5089677;27;28414;-87
2022/05/06 06:00:49;;;;;;;;;;;;;;;;;;5114912;27;28499;-83
2022/05/06 06:03:14;;;;;;;;;;;;;;;;;;5113968;27;28564;-88
2022/05/06 06:05:39;;;;;;;;;;;;;;;;;;5115213;27;28564;-88
2022/05/06 06:08:04;;;;;;;;;;;;;;;;;;5097752;27;28441;-89
2022/05/06 06:10:29;;;;;;;;;;;;;;;;;;5115394;27;28352;-88
2022/05/06 06:12:56;;;;;;;;;;;;;;;;;;5115061;27;28529;-88
2022/05/06 06:15:21;;;;;;;;;;;;;;;;;;5114927;27;28464;-88
2022/05/06 06:17:46;;;;;;;;;;;;;;;;;;5115002;27;28474;-88
2022/05/06 06:20:11;;;;;;;;;;;;;;;;;;5115086;27;28442;-88
2022/05/06 06:22:36;;;;;;;;;;;;;;;;;;5122680;27;28657;-88
2022/05/06 06:25:02;;;;;;;;;;;;;;;;;;5137247;27;28410;-88
2022/05/06 06:27:28;;;;;;;;;;;;;;;;;;5137604;27;28246;-88
2022/05/06 06:29:53;;;;;;;;;;;;;;;;;;5137700;27;28263;-88
2022/05/06 06:32:18;;;;;;;;;;;;;;;;;;5137757;27;28223;-88
2022/05/06 06:34:43;;;;;;;;;;;;;;;;;;5137685;27;28901;-88
2022/05/06 06:37:08;;;;;;;;;;;;;;;;;;5137622;27;28320;-89
2022/05/06 06:39:33;;;;;;;;;;;;;;;;;;5137802;27;28232;-88
2022/05/06 06:41:59;;;;;;;;;;;;;;;;;;5137595;27;28315;-88
2022/05/06 06:44:24;;;;;;;;;;;;;;;;;;5137376;27;28320;-88
2022/05/06 06:46:53;;;;;;;;;;;;;;;;;;5137564;27;28448;-88
2022/05/06 06:49:18;;;;;;;;;;;;;;;;;;5137353;27;28374;-88
2022/05/06 06:51:44;;;;;;;;;;;;;;;;;;5137677;27;28464;-88
2022/05/06 06:54:09;;;;;;;;;;;;;;;;;;5137243;27;28791;-88
2022/05/06 06:56:34;;;;;;;;;;;;;;;;;;5137302;27;28409;-89
2022/05/06 06:58:59;;;;;;;;;;;;;;;;;;5137010;27;28511;-89
2022/05/06 07:01:25;;;;;;;;;;;;;;;;;;5137248;27;28270;-88
2022/05/06 07:03:51;;;;;;;;;;;;;;;;;;5153027;27;29694;-88
2022/05/06 07:11:53;;;;;;;;;;;;;;;;;;5137089;27;28516;-88
2022/05/06 07:14:18;;;;;;;;;;;;;;;;;;5136740;27;28630;-88
2022/05/06 07:16:43;;;;;;;;;;;;;;;;;;5137100;27;28388;-89
2022/05/06 07:19:08;;;;;;;;;;;;;;;;;;5136691;27;28392;-88
2022/05/06 07:21:33;;;;;;;;;;;;;;;;;;5153178;27;28373;-89
2022/05/06 07:23:58;;;;;;;;;;;;;;;;;;5152802;27;28403;-89
2022/05/06 07:26:24;;;;;;;;;;;;;;;;;;5137024;27;28223;-88
2022/05/06 07:28:49;;;;;;;;;;;;;;;;;;5153040;27;27830;-88
2022/05/06 07:31:15;;;;;;;;;;;;;;;;;;5136907;27;28352;-89
2022/05/06 07:33:40;;;;;;;;;;;;;;;;;;5136788;27;28578;-88
2022/05/06 07:36:05;;;;;;;;;;;;;;;;;;5135684;27;28246;-88
2022/05/06 07:38:30;;;;;;;;;;;;;;;;;;5136760;27;28638;-88
2022/05/06 07:40:55;;;;;;;;;;;;;;;;;;5136975;27;28392;-88
2022/05/06 07:43:20;;;;;;;;;;;;;;;;;;5152571;27;29964;-88
2022/05/06 07:45:45;;;;;;;;;;;;;;;;;;5136775;27;28331;-88
2022/05/06 07:48:13;;;;;;;;;;;;;;;;;;5152531;27;28392;-88
2022/05/06 07:50:43;;;;;;;;;;;;;;;;;;5136711;27;28243;-88
2022/05/06 07:53:09;;;;;;;;;;;;;;;;;;5136768;27;28549;-86
2022/05/06 07:55:36;;;;;;;;;;;;;;;;;;5136444;27;28535;-89
2022/05/06 07:58:01;;;;;;;;;;;;;;;;;;5152865;27;28569;-91
2022/05/06 08:00:26;;;;;;;;;;;;;;;;;;5152893;27;28581;-87
2022/05/06 08:05:35;;;;;;;;;;;;;;;;;;5136138;27;28354;-88
2022/05/06 08:08:00;;;;;;;;;;;;;;;;;;5136704;27;28377;-90
2022/05/06 08:10:25;;;;;;;;;;;;;;;;;;5152485;27;28636;-91
2022/05/06 08:12:50;;;;;;;;;;;;;;;;;;5135896;27;28330;-91
2022/05/06 08:15:15;;;;;;;;;;;;;;;;;;5136327;27;28413;-91
2022/05/06 08:17:40;;;;;;;;;;;;;;;;;;5137045;27;28384;-90
2022/05/06 08:20:06;;;;;;;;;;;;;;;;;;5152780;27;28381;-91
2022/05/06 08:22:31;;;;;;;;;;;;;;;;;;5152900;27;28759;-91
2022/05/06 08:24:56;;;;;;;;;;;;;;;;;;5136421;27;28330;-91
2022/05/06 08:27:22;;;;;;;;;;;;;;;;;;5136286;27;28380;-91
2022/05/06 08:29:47;;;;;;;;;;;;;;;;;;5152663;27;28403;-91
2022/05/06 08:32:12;;;;;;;;;;;;;;;;;;5138021;27;29431;-91
2022/05/06 08:34:37;;;;;;;;;;;;;;;;;;5170490;27;28553;-91
2022/05/06 08:37:03;;;;;;;;;;;;;;;;;;5141530;27;28360;-92
2022/05/06 08:39:28;;;;;;;;;;;;;;;;;;5178938;27;28558;-92
2022/05/06 08:41:54;;;;;;;;;;;;;;;;;;5161783;27;28231;-91
2022/05/06 08:52:31;;;;;;;;;;;;;;;;;;5162225;27;28715;-92
2022/05/06 08:54:56;;;;;;;;;;;;;;;;;;5176346;27;28513;-91
2022/05/06 08:57:21;;;;;;;;;;;;;;;;;;5164125;27;28423;-93
2022/05/06 08:59:46;;;;;;;;;;;;;;;;;;5182636;27;28314;-92
2022/05/06 09:02:12;;;;;;;;;;;;;;;;;;5181610;27;28363;-92
2022/05/06 09:04:37;;;;;;;;;;;;;;;;;;5181272;27;28356;-92
2022/05/06 09:07:02;;;;;;;;;;;;;;;;;;5181616;27;28251;-93
2022/05/06 09:09:28;;;;;;;;;;;;;;;;;;5181793;27;28584;-92
2022/05/06 09:17:20;;;;;;;;;;;;;;;;;;5158851;27;28456;-91
2022/05/06 09:19:46;;;;;;;;;;;;;;;;;;5160078;27;28819;-92
2022/05/06 09:22:17;;;;;;;;;;;;;;;;;;5159851;27;28455;-91
2022/05/06 09:24:42;;;;;;;;;;;;;;;;;;5159453;27;28371;-91
2022/05/06 09:27:07;;;;;;;;;;;;;;;;;;5157429;27;28417;-90
2022/05/06 09:29:33;;;;;;;;;;;;;;;;;;5138762;27;28349;-92
2022/05/06 09:31:58;;;;;;;;;;;;;;;;;;5138419;27;28583;-90
2022/05/06 09:34:23;;;;;;;;;;;;;;;;;;5155609;27;27829;-91
2022/05/06 09:36:49;;;;;;;;;;;;;;;;;;5149727;27;28373;-92
2022/05/06 09:39:14;;;;;;;;;;;;;;;;;;5157032;27;28512;-92
2022/05/06 09:41:39;;;;;;;;;;;;;;;;;;5167516;27;29898;-95
2022/05/06 09:44:05;;;;;;;;;;;;;;;;;;5165689;27;28490;-85
2022/05/06 09:46:31;;;;;;;;;;;;;;;;;;5139428;27;28383;-90
2022/05/06 09:48:56;;;;;;;;;;;;;;;;;;5138148;27;28499;-87
2022/05/06 09:51:22;;;;;;;;;;;;;;;;;;5137976;27;28434;-89
2022/05/06 09:53:48;;;;;;;;;;;;;;;;;;5138522;27;28248;-85
2022/05/06 09:56:13;;;;;;;;;;;;;;;;;;5138123;27;28298;-90
2022/05/06 09:58:38;;;;;;;;;;;;;;;;;;5165627;27;28471;-90
2022/05/06 10:01:03;;;;;;;;;;;;;;;;;;5171820;27;28569;-89
2022/05/06 10:03:28;;;;;;;;;;;;;;;;;;5139147;27;28467;-88
2022/05/06 10:05:53;;;;;;;;;;;;;;;;;;5146128;27;28539;-86
2022/05/06 10:08:18;;;;;;;;;;;;;;;;;;5162914;27;28354;-85
2022/05/06 10:10:43;;;;;;;;;;;;;;;;;;5179704;27;28439;-84
2022/05/06 10:13:09;;;;;;;;;;;;;;;;;;5166134;27;28313;-84
2022/05/06 10:15:34;;;;;;;;;;;;;;;;;;5153174;27;28247;-88
2022/05/06 10:17:59;;;;;;;;;;;;;;;;;;5159201;27;28502;-84
2022/05/06 10:20:24;;;;;;;;;;;;;;;;;;5172098;27;29400;-85
2022/05/06 10:22:50;;;;;;;;;;;;;;;;;;5174766;27;28468;-85
2022/05/06 10:25:15;;;;;;;;;;;;;;;;;;5179548;27;28401;-84
2022/05/06 10:33:08;;;;;;;;;;;;;;;;;;5158471;27;28303;-85
2022/05/06 10:35:33;;;;;;;;;;;;;;;;;;5158371;27;28473;-85
2022/05/06 10:37:58;;;;;;;;;;;;;;;;;;5156075;27;28508;-85
2022/05/06 10:40:23;;;;;;;;;;;;;;;;;;5173818;27;28851;-85
2022/05/06 10:42:49;;;;;;;;;;;;;;;;;;5158107;27;28423;-85
2022/05/06 10:45:14;;;;;;;;;;;;;;;;;;5157946;27;28529;-85
2022/05/06 10:47:40;;;;;;;;;;;;;;;;;;5157813;27;28276;-85
2022/05/06 10:50:05;;;;;;;;;;;;;;;;;;5152974;27;29173;-85
2022/05/06 10:52:32;;;;;;;;;;;;;;;;;;5138589;27;28082;-87
2022/05/06 10:55:00;;;;;;;;;;;;;;;;;;5138243;27;28580;-85
2022/05/06 10:57:25;;;;;;;;;;;;;;;;;;5153427;27;28579;-86
2022/05/06 10:59:51;;;;;;;;;;;;;;;;;;5138745;27;28493;-88
2022/05/06 11:02:16;;;;;;;;;;;;;;;;;;5157635;27;31380;-86
2022/05/06 11:04:41;;;;;;;;;;;;;;;;;;5158509;27;28337;-85
2022/05/06 11:07:06;;;;;;;;;;;;;;;;;;5146841;27;28463;-84
2022/05/06 11:09:32;;;;;;;;;;;;;;;;;;5140147;27;29660;-86
2022/05/06 11:11:57;;;;;;;;;;;;;;;;;;5154730;27;28323;-85
2022/05/06 11:14:22;;;;;;;;;;;;;;;;;;5157713;27;28369;-86
2022/05/06 11:16:47;;;;;;;;;;;;;;;;;;5165874;27;27855;-84
2022/05/06 11:19:12;;;;;;;;;;;;;;;;;;5149626;27;29564;-84
2022/05/06 11:21:37;;;;;;;;;;;;;;;;;;5158008;27;28288;-84
2022/05/06 11:24:05;;;;;;;;;;;;;;;;;;5157661;27;28358;-83
2022/05/06 11:26:30;;;;;;;;;;;;;;;;;;5157560;27;28441;-84
2022/05/06 11:28:55;;;;;;;;;;;;;;;;;;5157775;27;29476;-84
2022/05/06 11:31:20;;;;;;;;;;;;;;;;;;5157661;27;28443;-84
2022/05/06 11:33:45;;;;;;;;;;;;;;;;;;5158112;27;28488;-84
2022/05/06 11:36:14;;;;;;;;;;;;;;;;;;5157501;27;28423;-84
2022/05/06 11:38:39;;;;;;;;;;;;;;;;;;5157430;27;29444;-83
2022/05/06 11:41:05;;;;;;;;;;;;;;;;;;5173746;27;29710;-83
2022/05/06 11:43:30;;;;;;;;;;;;;;;;;;5157255;27;28387;-83
2022/05/06 11:48:56;;;;;;;;;;;;;;;;;;5093120;28;29312;-84
2022/05/06 11:51:21;;;;;;;;;;;;;;;;;;5093093;28;28735;-84
2022/05/06 11:53:46;;;;;;;;;;;;;;;;;;5093246;28;28350;-84
2022/05/06 11:56:12;;;;;;;;;;;;;;;;;;5093194;28;28526;-86
2022/05/06 11:58:37;;;;;;;;;;;;;;;;;;5092997;28;29338;-86
2022/05/06 12:01:02;;;;;;;;;;;;;;;;;;5093237;28;28515;-86
2022/05/06 12:03:27;;;;;;;;;;;;;;;;;;5093263;28;28427;-86
2022/05/06 12:05:52;;;;;;;;;;;;;;;;;;5092978;28;28434;-83
2022/05/06 12:08:17;;;;;;;;;;;;;;;;;;5093007;28;28500;-83
2022/05/06 12:10:42;;;;;;;;;;;;;;;;;;5092935;28;28481;-83
2022/05/06 12:13:07;;;;;;;;;;;;;;;;;;5093030;28;28292;-83
2022/05/06 12:15:33;;;;;;;;;;;;;;;;;;5093013;28;28439;-83
2022/05/06 12:18:00;;;;;;;;;;;;;;;;;;5092822;28;28571;-83
2022/05/06 12:20:26;;;;;;;;;;;;;;;;;;5092970;28;28451;-83
2022/05/06 12:22:51;;;;;;;;;;;;;;;;;;5125294;27;28400;-83
2022/05/06 12:25:16;;;;;;;;;;;;;;;;;;5160569;27;28354;-83
2022/05/06 12:27:41;;;;;;;;;;;;;;;;;;5160683;27;29583;-85
2022/05/06 12:30:07;;;;;;;;;;;;;;;;;;5160706;27;28348;-84
2022/05/06 12:32:32;;;;;;;;;;;;;;;;;;5160553;27;28255;-84
2022/05/06 12:34:57;;;;;;;;;;;;;;;;;;5160616;27;28293;-84
2022/05/06 12:37:22;;;;;;;;;;;;;;;;;;5160289;27;28896;-83
2022/05/06 12:39:50;;;;;;;;;;;;;;;;;;5160566;27;31429;-84
2022/05/06 12:42:15;;;;;;;;;;;;;;;;;;5160260;27;28788;-83
2022/05/06 12:44:40;;;;;;;;;;;;;;;;;;5160558;27;28429;-83
2022/05/06 12:47:06;;;;;;;;;;;;;;;;;;5160413;27;28295;-84
2022/05/06 12:49:40;;;;;;;;;;;;;;;;;;5160181;27;28380;-83
2022/05/06 12:52:05;;;;;;;;;;;;;;;;;;5160310;27;28413;-84
2022/05/06 12:54:30;;;;;;;;;;;;;;;;;;5160273;27;28218;-84
2022/05/06 12:56:55;;;;;;;;;;;;;;;;;;5176373;27;28837;-84
2022/05/06 12:59:20;;;;;;;;;;;;;;;;;;5159893;27;28285;-85
2022/05/06 13:01:45;;;;;;;;;;;;;;;;;;5159757;27;28383;-84
2022/05/06 13:04:10;;;;;;;;;;;;;;;;;;5160268;27;28340;-84
2022/05/06 13:06:36;;;;;;;;;;;;;;;;;;5175972;27;30886;-85
2022/05/06 13:09:01;;;;;;;;;;;;;;;;;;5159971;27;28334;-84
2022/05/06 13:11:26;;;;;;;;;;;;;;;;;;5159730;27;28307;-85
2022/05/06 13:13:52;;;;;;;;;;;;;;;;;;5159148;27;28301;-84
2022/05/06 13:16:17;;;;;;;;;;;;;;;;;;5165763;27;29212;-84
2022/05/06 13:18:42;;;;;;;;;;;;;;;;;;5143174;27;28119;-87
2022/05/06 13:21:07;;;;;;;;;;;;;;;;;;5159617;27;28406;-86
2022/05/06 13:23:32;;;;;;;;;;;;;;;;;;5135432;27;28687;-87
2022/05/06 13:25:58;;;;;;;;;;;;;;;;;;5163931;27;31194;-84
2022/05/06 13:28:23;;;;;;;;;;;;;;;;;;5155255;27;28384;-85
2022/05/06 13:30:48;;;;;;;;;;;;;;;;;;5157732;27;28330;-86
2022/05/06 13:33:13;;;;;;;;;;;;;;;;;;5157807;27;28326;-87
2022/05/06 13:35:38;;;;;;;;;;;;;;;;;;5157312;27;29757;-88
2022/05/06 13:38:03;;;;;;;;;;;;;;;;;;5159380;27;28393;-87
2022/05/06 13:40:28;;;;;;;;;;;;;;;;;;5161650;27;28491;-89
2022/05/06 13:42:53;;;;;;;;;;;;;;;;;;5164791;27;28546;-83
2022/05/06 13:45:19;;;;;;;;;;;;;;;;;;5137671;27;28476;-84
2022/05/06 13:47:44;;;;;;;;;;;;;;;;;;5137746;27;28441;-87
2022/05/06 13:50:09;;;;;;;;;;;;;;;;;;5146015;27;28456;-87
2022/05/06 13:52:34;;;;;;;;;;;;;;;;;;5157046;27;28506;-87
2022/05/06 13:55:03;;;;;;;;;;;;;;;;;;5149741;27;28969;-87
2022/05/06 14:00:12;;;;;;;;;;;;;;;;;;5162003;27;28496;-87
2022/05/06 14:02:37;;;;;;;;;;;;;;;;;;5179547;27;28596;-87
2022/05/06 14:05:02;;;;;;;;;;;;;;;;;;5179376;27;28536;-91
2022/05/06 14:07:27;;;;;;;;;;;;;;;;;;5168685;27;28766;-87
2022/05/06 14:09:52;;;;;;;;;;;;;;;;;;5159443;27;28462;-88
2022/05/06 14:12:17;;;;;;;;;;;;;;;;;;5159333;27;28390;-93
2022/05/06 14:14:43;;;;;;;;;;;;;;;;;;5158482;27;29640;-86
2022/05/06 14:17:08;;;;;;;;;;;;;;;;;;5158435;27;28433;-88
2022/05/06 14:19:33;;;;;;;;;;;;;;;;;;5158485;27;28373;-89
2022/05/06 14:21:58;;;;;;;;;;;;;;;;;;5139403;27;28457;-84
2022/05/06 14:24:23;;;;;;;;;;;;;;;;;;5158185;27;28522;-87
2022/05/06 14:26:49;;;;;;;;;;;;;;;;;;5157744;27;28527;-85
2022/05/06 14:29:14;;;;;;;;;;;;;;;;;;5158396;27;28473;-84
2022/05/06 14:31:39;;;;;;;;;;;;;;;;;;5156105;27;28609;-82
2022/05/06 14:34:04;;;;;;;;;;;;;;;;;;5157850;27;28640;-83
2022/05/06 14:36:29;;;;;;;;;;;;;;;;;;5140950;27;28240;-86
2022/05/06 14:38:55;;;;;;;;;;;;;;;;;;5158372;27;28724;-85
2022/05/06 14:41:21;;;;;;;;;;;;;;;;;;5151167;27;28452;-88
2022/05/06 14:43:46;;;;;;;;;;;;;;;;;;5142490;27;28414;-86
2022/05/06 14:46:11;;;;;;;;;;;;;;;;;;5145429;27;28380;-87
2022/05/06 14:48:36;;;;;;;;;;;;;;;;;;5148623;27;28340;-84
2022/05/06 14:51:01;;;;;;;;;;;;;;;;;;5177215;27;28415;-83
2022/05/06 14:53:26;;;;;;;;;;;;;;;;;;5173821;27;28557;-85
2022/05/06 14:55:51;;;;;;;;;;;;;;;;;;5152863;27;28336;-85
2022/05/06 14:58:16;;;;;;;;;;;;;;;;;;5141824;27;28288;-86
2022/05/06 15:00:42;;;;;;;;;;;;;;;;;;5167320;27;28527;-88
2022/05/06 15:03:07;;;;;;;;;;;;;;;;;;5183649;27;30151;-86
2022/05/06 15:05:32;;;;;;;;;;;;;;;;;;5160213;27;28769;-85
2022/05/06 15:07:57;;;;;;;;;;;;;;;;;;5178472;27;27881;-83
2022/05/06 15:10:22;;;;;;;;;;;;;;;;;;5150328;27;28356;-89
2022/05/06 15:12:48;;;;;;;;;;;;;;;;;;5137228;27;28653;-90
2022/05/06 15:15:14;;;;;;;;;;;;;;;;;;5153447;27;28538;-84
2022/05/06 15:17:39;;;;;;;;;;;;;;;;;;5161176;27;28308;-87
2022/05/06 15:20:05;;;;;;;;;;;;;;;;;;5162223;27;28554;-83
2022/05/06 15:22:33;;;;;;;;;;;;;;;;;;5155947;27;28600;-80
2022/05/06 15:24:58;;;;;;;;;;;;;;;;;;5157751;27;28538;-82
2022/05/06 15:27:25;;;;;;;;;;;;;;;;;;5155841;27;28317;-88
2022/05/06 15:29:50;;;;;;;;;;;;;;;;;;5147015;27;28252;-88
2022/05/06 15:32:16;;;;;;;;;;;;;;;;;;5155143;27;28757;-95
2022/05/06 15:34:41;;;;;;;;;;;;;;;;;;5143753;27;28300;-94
2022/05/06 15:37:06;;;;;;;;;;;;;;;;;;5139042;27;28341;-88
2022/05/06 15:39:31;;;;;;;;;;;;;;;;;;5158403;27;28469;-92
2022/05/06 15:41:56;;;;;;;;;;;;;;;;;;5157116;27;28400;-92
2022/05/06 15:44:21;;;;;;;;;;;;;;;;;;5158567;27;28461;-88
2022/05/06 15:46:46;;;;;;;;;;;;;;;;;;5154963;27;28305;-91
2022/05/06 15:49:12;;;;;;;;;;;;;;;;;;5162895;27;35070;-92
2022/05/06 15:51:37;;;;;;;;;;;;;;;;;;5155091;27;29593;-92
2022/05/06 15:54:02;;;;;;;;;;;;;;;;;;5159858;27;28454;-92
2022/05/06 15:56:27;;;;;;;;;;;;;;;;;;5141179;27;28405;-94
2022/05/06 15:58:52;;;;;;;;;;;;;;;;;;5144434;27;28412;-92
2022/05/06 16:01:18;;;;;;;;;;;;;;;;;;5163816;27;29352;-92
2022/05/06 16:03:43;;;;;;;;;;;;;;;;;;5144930;27;28471;-92
2022/05/06 16:06:11;;;;;;;;;;;;;;;;;;5163019;27;28326;-94
2022/05/06 16:08:36;;;;;;;;;;;;;;;;;;5162979;27;28316;-86
2022/05/06 16:11:01;;;;;;;;;;;;;;;;;;5162920;27;28395;-85
2022/05/06 16:13:26;;;;;;;;;;;;;;;;;;5153364;27;28466;-85
2022/05/06 16:15:51;;;;;;;;;;;;;;;;;;5155770;27;28518;-84
2022/05/06 16:18:16;;;;;;;;;;;;;;;;;;5162576;27;28375;-84
2022/05/06 16:20:41;;;;;;;;;;;;;;;;;;5156188;27;28566;-89
2022/05/06 16:23:07;;;;;;;;;;;;;;;;;;5141406;27;28438;-91
2022/05/06 16:25:32;;;;;;;;;;;;;;;;;;5157734;27;28419;-85
2022/05/06 16:28:00;;;;;;;;;;;;;;;;;;5141522;27;28297;-85
2022/05/06 16:30:25;;;;;;;;;;;;;;;;;;5152192;27;28391;-86
2022/05/06 16:32:50;;;;;;;;;;;;;;;;;;5158231;27;28383;-86
2022/05/06 16:37:59;;;;;;;;;;;;;;;;;;5165720;27;28476;-91
2022/05/06 16:40:25;;;;;;;;;;;;;;;;;;5159629;27;29889;-86
2022/05/06 16:42:50;;;;;;;;;;;;;;;;;;5157503;27;28367;-84
2022/05/06 16:45:15;;;;;;;;;;;;;;;;;;5165390;27;28283;-89
2022/05/06 16:47:40;;;;;;;;;;;;;;;;;;5183132;27;27927;-90
2022/05/06 16:50:05;;;;;;;;;;;;;;;;;;5162961;27;29565;-84
2022/05/06 16:52:30;;;;;;;;;;;;;;;;;;5160574;27;28240;-83
2022/05/06 16:54:55;;;;;;;;;;;;;;;;;;5160851;27;28381;-87
2022/05/06 16:57:21;;;;;;;;;;;;;;;;;;5156124;27;28888;-83
2022/05/06 16:59:46;;;;;;;;;;;;;;;;;;5160744;27;29936;-86
2022/05/06 17:02:13;;;;;;;;;;;;;;;;;;5139848;27;28390;-89
2022/05/06 17:04:39;;;;;;;;;;;;;;;;;;5140500;27;27875;-90
2022/05/06 17:07:04;;;;;;;;;;;;;;;;;;5142654;27;28273;-90
2022/05/06 17:09:29;;;;;;;;;;;;;;;;;;5138880;27;28456;-87
2022/05/06 17:11:54;;;;;;;;;;;;;;;;;;5153991;27;28295;-88
2022/05/06 17:14:19;;;;;;;;;;;;;;;;;;5150206;27;28522;-91
2022/05/06 17:16:44;;;;;;;;;;;;;;;;;;5160513;27;28323;-89
2022/05/06 17:19:10;;;;;;;;;;;;;;;;;;5148192;27;28314;-87
2022/05/06 17:21:35;;;;;;;;;;;;;;;;;;5147297;27;28411;-88
2022/05/06 17:24:00;;;;;;;;;;;;;;;;;;5173159;27;28470;-87
2022/05/06 17:26:25;;;;;;;;;;;;;;;;;;5143479;27;28416;-89
2022/05/06 17:28:50;;;;;;;;;;;;;;;;;;5155957;27;29400;-91